Ana Sayfa
METAR-TAF:

METAR-TAF

Havaalanları :

Sarnia, Ontario, Kanada

Enlem: 43-00N, Boylam: 082-19W, yükseklik: 181 m

Güncel hava durumu gözlemi

Rapor saat 05:00 UTC de 44 dakika önce yapıldı.
Rüzgar güneybatıdan 8 kt
Sıcaklık -5°C
Nem 79%
Basınç 1029 hPa
Görüş mesafesi: 14.5 km
Açık gökyüzü

METAR: CYZR 220500Z AUTO 22008KT 9SM CLR M05/M08 A3038 RMK SLP299

Saat: 00:44 (05:44 UTC)

Tahmin

Rapor saat 19:38 UTC de 10 saat ve 6 dakika önce yapıldı.
Ayın 21'si saat 20 UTC'den ayın 22'si saat 03 UTC'ye kadar geçerli Tahmin
Rüzgar güneybatıdan 10 kt
Görüş mesafesi: 10 km
20000 ft yükseklikte parçalı çok bulutlu
Ayın 22'si saat 0000 UTC'den
Rüzgar güney/güneybatıdan 10 kt
Görüş mesafesi: 10 km
3000 ft yükseklikte parçalı bulutlu
16000 ft yükseklikte parçalı çok bulutlu

TAF: CYZR 211938Z 2120/2203 23010KT P6SM BKN200 FM220000 20010KT P6SM SCT030 BKN160 RMK FCST BASED ON AUTO OBS. NXT FCST WILL BE ISSUED AT 220845Z

4.000'den fazla havaalanı için hava durumu gözlemleri ve tahminleri (METAR ve TAF raporları).

Kullanılabilir istasyonlar harita üzerinde sarı ve kırmızı noktalarla gösterilir.

İstasyonun adını görmek için fareyi noktanın üzerinde gezdirin.

Sonrasında hava gözlem ve tahminlerini görmek için tıklayın.

Haritayı değiştirmek için: yaklaştırmak için siyah artı işaretli yeşil düğmeye ve uzaklaştırmak için de eksi işaretli düğmeye hızla tıklayın; bitişik haritalar için yeşil okları kullanın.


METAR-TAF: